sensor_id;sensor_type;location;lat;lon;timestamp;temperature;humidity
10459;DHT22;5277;48.722;8.736;2022-09-29T00:01:08;8.40;99.90
10459;DHT22;5277;48.722;8.736;2022-09-29T00:03:35;8.40;99.90
10459;DHT22;5277;48.722;8.736;2022-09-29T00:06:01;8.40;99.90
10459;DHT22;5277;48.722;8.736;2022-09-29T00:08:29;8.30;99.90
10459;DHT22;5277;48.722;8.736;2022-09-29T00:10:55;8.30;99.90
10459;DHT22;5277;48.722;8.736;2022-09-29T00:13:21;8.30;99.90
10459;DHT22;5277;48.722;8.736;2022-09-29T00:15:58;8.30;99.90
10459;DHT22;5277;48.722;8.736;2022-09-29T00:18:24;8.30;99.90
10459;DHT22;5277;48.722;8.736;2022-09-29T00:21:04;8.30;99.90
10459;DHT22;5277;48.722;8.736;2022-09-29T00:23:32;8.30;99.90
10459;DHT22;5277;48.722;8.736;2022-09-29T00:26:09;8.20;99.90
10459;DHT22;5277;48.722;8.736;2022-09-29T00:28:37;8.20;99.90
10459;DHT22;5277;48.722;8.736;2022-09-29T00:31:04;8.10;99.90
10459;DHT22;5277;48.722;8.736;2022-09-29T00:33:31;8.20;99.90
10459;DHT22;5277;48.722;8.736;2022-09-29T00:36:00;8.20;99.90
10459;DHT22;5277;48.722;8.736;2022-09-29T00:38:27;8.20;99.90
10459;DHT22;5277;48.722;8.736;2022-09-29T00:40:53;8.20;99.90
10459;DHT22;5277;48.722;8.736;2022-09-29T00:43:23;8.20;99.90
10459;DHT22;5277;48.722;8.736;2022-09-29T00:45:51;8.20;99.90
10459;DHT22;5277;48.722;8.736;2022-09-29T00:48:24;8.20;99.90
10459;DHT22;5277;48.722;8.736;2022-09-29T00:50:54;8.20;99.90
10459;DHT22;5277;48.722;8.736;2022-09-29T00:53:21;8.20;99.90
10459;DHT22;5277;48.722;8.736;2022-09-29T00:56:02;8.20;99.90
10459;DHT22;5277;48.722;8.736;2022-09-29T01:00:57;8.20;99.90
10459;DHT22;5277;48.722;8.736;2022-09-29T01:03:27;8.30;99.90
10459;DHT22;5277;48.722;8.736;2022-09-29T01:05:59;8.30;99.90
10459;DHT22;5277;48.722;8.736;2022-09-29T01:08:42;8.30;99.90
10459;DHT22;5277;48.722;8.736;2022-09-29T01:11:11;8.20;99.90
10459;DHT22;5277;48.722;8.736;2022-09-29T01:13:38;8.20;99.90
10459;DHT22;5277;48.722;8.736;2022-09-29T01:16:04;8.10;99.90
10459;DHT22;5277;48.722;8.736;2022-09-29T01:18:30;8.10;99.90
10459;DHT22;5277;48.722;8.736;2022-09-29T01:35:36;8.10;99.90
10459;DHT22;5277;48.722;8.736;2022-09-29T01:41:15;8.20;99.90
10459;DHT22;5277;48.722;8.736;2022-09-29T01:49:15;8.20;99.90
10459;DHT22;5277;48.722;8.736;2022-09-29T01:51:46;8.20;99.90
10459;DHT22;5277;48.722;8.736;2022-09-29T01:54:20;8.20;99.90
10459;DHT22;5277;48.722;8.736;2022-09-29T01:57:00;8.20;99.90
10459;DHT22;5277;48.722;8.736;2022-09-29T01:59:48;8.20;99.90
10459;DHT22;5277;48.722;8.736;2022-09-29T02:02:26;8.20;99.90
10459;DHT22;5277;48.722;8.736;2022-09-29T02:04:57;8.20;99.90
10459;DHT22;5277;48.722;8.736;2022-09-29T02:07:37;8.30;99.90
10459;DHT22;5277;48.722;8.736;2022-09-29T02:10:11;8.20;99.90
10459;DHT22;5277;48.722;8.736;2022-09-29T02:12:39;8.20;99.90
10459;DHT22;5277;48.722;8.736;2022-09-29T02:15:08;8.30;99.90
10459;DHT22;5277;48.722;8.736;2022-09-29T02:17:40;8.30;99.90
10459;DHT22;5277;48.722;8.736;2022-09-29T02:20:10;8.30;99.90
10459;DHT22;5277;48.722;8.736;2022-09-29T02:22:36;8.30;99.90
10459;DHT22;5277;48.722;8.736;2022-09-29T02:25:03;8.20;99.90
10459;DHT22;5277;48.722;8.736;2022-09-29T02:27:30;8.20;99.90
10459;DHT22;5277;48.722;8.736;2022-09-29T02:29:58;8.20;99.90
10459;DHT22;5277;48.722;8.736;2022-09-29T02:32:24;8.10;99.90
10459;DHT22;5277;48.722;8.736;2022-09-29T02:34:51;8.10;99.90
10459;DHT22;5277;48.722;8.736;2022-09-29T02:48:32;8.30;99.90
10459;DHT22;5277;48.722;8.736;2022-09-29T02:51:16;8.20;99.90
10459;DHT22;5277;48.722;8.736;2022-09-29T02:59:50;8.20;99.90
10459;DHT22;5277;48.722;8.736;2022-09-29T03:02:23;8.30;99.90
10459;DHT22;5277;48.722;8.736;2022-09-29T03:04:50;8.30;99.90
10459;DHT22;5277;48.722;8.736;2022-09-29T03:07:15;8.30;99.90
10459;DHT22;5277;48.722;8.736;2022-09-29T03:09:41;8.30;99.90
10459;DHT22;5277;48.722;8.736;2022-09-29T03:12:06;8.30;99.90
10459;DHT22;5277;48.722;8.736;2022-09-29T03:14:32;8.30;99.90
10459;DHT22;5277;48.722;8.736;2022-09-29T03:16:58;8.20;99.90
10459;DHT22;5277;48.722;8.736;2022-09-29T03:19:23;8.20;99.90
10459;DHT22;5277;48.722;8.736;2022-09-29T03:21:49;8.10;99.90
10459;DHT22;5277;48.722;8.736;2022-09-29T03:24:15;8.20;99.90
10459;DHT22;5277;48.722;8.736;2022-09-29T03:26:40;8.20;99.90
10459;DHT22;5277;48.722;8.736;2022-09-29T03:29:06;8.10;99.90
10459;DHT22;5277;48.722;8.736;2022-09-29T03:31:32;8.10;99.90
10459;DHT22;5277;48.722;8.736;2022-09-29T03:33:58;8.00;99.90
10459;DHT22;5277;48.722;8.736;2022-09-29T03:36:24;7.90;99.90
10459;DHT22;5277;48.722;8.736;2022-09-29T03:38:49;7.90;99.90
10459;DHT22;5277;48.722;8.736;2022-09-29T03:41:15;7.90;99.90
10459;DHT22;5277;48.722;8.736;2022-09-29T03:43:40;7.90;99.90
10459;DHT22;5277;48.722;8.736;2022-09-29T03:46:06;7.80;99.90
10459;DHT22;5277;48.722;8.736;2022-09-29T03:48:32;7.80;99.90
10459;DHT22;5277;48.722;8.736;2022-09-29T03:51:00;7.80;99.90
10459;DHT22;5277;48.722;8.736;2022-09-29T03:53:26;7.80;99.90
10459;DHT22;5277;48.722;8.736;2022-09-29T03:55:52;7.80;99.90
10459;DHT22;5277;48.722;8.736;2022-09-29T03:58:18;7.80;99.90
10459;DHT22;5277;48.722;8.736;2022-09-29T04:00:44;7.80;99.90
10459;DHT22;5277;48.722;8.736;2022-09-29T04:03:10;7.70;99.90
10459;DHT22;5277;48.722;8.736;2022-09-29T04:05:36;7.70;99.90
10459;DHT22;5277;48.722;8.736;2022-09-29T04:08:04;7.70;99.90
10459;DHT22;5277;48.722;8.736;2022-09-29T04:10:33;7.70;99.90
10459;DHT22;5277;48.722;8.736;2022-09-29T04:12:59;7.60;99.90
10459;DHT22;5277;48.722;8.736;2022-09-29T04:15:24;7.70;99.90
10459;DHT22;5277;48.722;8.736;2022-09-29T04:17:50;7.60;99.90
10459;DHT22;5277;48.722;8.736;2022-09-29T04:20:15;7.60;99.90
10459;DHT22;5277;48.722;8.736;2022-09-29T04:22:41;7.60;99.90
10459;DHT22;5277;48.722;8.736;2022-09-29T04:25:07;7.60;99.90
10459;DHT22;5277;48.722;8.736;2022-09-29T04:27:33;7.60;99.90
10459;DHT22;5277;48.722;8.736;2022-09-29T04:29:58;7.60;99.90
10459;DHT22;5277;48.722;8.736;2022-09-29T04:32:24;7.60;99.90
10459;DHT22;5277;48.722;8.736;2022-09-29T04:34:50;7.60;99.90
10459;DHT22;5277;48.722;8.736;2022-09-29T04:37:16;7.60;99.90
10459;DHT22;5277;48.722;8.736;2022-09-29T04:39:41;7.70;99.90
10459;DHT22;5277;48.722;8.736;2022-09-29T04:42:07;7.70;99.90
10459;DHT22;5277;48.722;8.736;2022-09-29T04:44:33;7.70;99.90
10459;DHT22;5277;48.722;8.736;2022-09-29T04:46:58;7.80;99.90
10459;DHT22;5277;48.722;8.736;2022-09-29T04:49:24;7.80;99.90
10459;DHT22;5277;48.722;8.736;2022-09-29T04:51:49;7.80;99.90
10459;DHT22;5277;48.722;8.736;2022-09-29T04:54:15;7.90;99.90
10459;DHT22;5277;48.722;8.736;2022-09-29T04:56:41;7.90;99.90
10459;DHT22;5277;48.722;8.736;2022-09-29T04:59:08;7.90;99.90
10459;DHT22;5277;48.722;8.736;2022-09-29T05:01:34;7.90;99.90
10459;DHT22;5277;48.722;8.736;2022-09-29T05:04:00;8.00;99.90
10459;DHT22;5277;48.722;8.736;2022-09-29T05:06:26;8.00;99.90
10459;DHT22;5277;48.722;8.736;2022-09-29T05:08:52;8.00;99.90
10459;DHT22;5277;48.722;8.736;2022-09-29T05:11:18;8.00;99.90
10459;DHT22;5277;48.722;8.736;2022-09-29T05:13:47;8.00;99.90
10459;DHT22;5277;48.722;8.736;2022-09-29T05:16:13;8.00;99.90
10459;DHT22;5277;48.722;8.736;2022-09-29T05:18:39;8.00;99.90
10459;DHT22;5277;48.722;8.736;2022-09-29T05:21:06;8.00;99.90
10459;DHT22;5277;48.722;8.736;2022-09-29T05:23:32;8.10;99.90
10459;DHT22;5277;48.722;8.736;2022-09-29T05:26:03;8.00;99.90
10459;DHT22;5277;48.722;8.736;2022-09-29T05:28:29;8.00;99.90
10459;DHT22;5277;48.722;8.736;2022-09-29T05:31:00;7.90;99.90
10459;DHT22;5277;48.722;8.736;2022-09-29T05:33:29;7.90;99.90
10459;DHT22;5277;48.722;8.736;2022-09-29T05:35:55;7.90;99.90
10459;DHT22;5277;48.722;8.736;2022-09-29T05:38:21;7.90;99.90
10459;DHT22;5277;48.722;8.736;2022-09-29T05:40:48;7.90;99.90
10459;DHT22;5277;48.722;8.736;2022-09-29T05:43:14;8.00;99.90
10459;DHT22;5277;48.722;8.736;2022-09-29T05:45:39;7.90;99.90
10459;DHT22;5277;48.722;8.736;2022-09-29T05:48:05;8.00;99.90
10459;DHT22;5277;48.722;8.736;2022-09-29T05:50:31;8.00;99.90
10459;DHT22;5277;48.722;8.736;2022-09-29T05:53:02;8.00;99.90
10459;DHT22;5277;48.722;8.736;2022-09-29T05:55:28;8.00;99.90
10459;DHT22;5277;48.722;8.736;2022-09-29T05:57:53;7.90;99.90
10459;DHT22;5277;48.722;8.736;2022-09-29T06:00:19;7.90;99.90
10459;DHT22;5277;48.722;8.736;2022-09-29T06:02:45;8.00;99.90
10459;DHT22;5277;48.722;8.736;2022-09-29T06:05:10;8.00;99.90
10459;DHT22;5277;48.722;8.736;2022-09-29T06:07:36;8.00;99.90
10459;DHT22;5277;48.722;8.736;2022-09-29T06:10:02;7.90;99.90
10459;DHT22;5277;48.722;8.736;2022-09-29T06:12:33;7.90;99.90
10459;DHT22;5277;48.722;8.736;2022-09-29T06:14:58;7.90;99.90
10459;DHT22;5277;48.722;8.736;2022-09-29T06:17:24;7.90;99.90
10459;DHT22;5277;48.722;8.736;2022-09-29T06:19:50;7.90;99.90
10459;DHT22;5277;48.722;8.736;2022-09-29T06:22:17;7.80;99.90
10459;DHT22;5277;48.722;8.736;2022-09-29T06:24:43;7.90;99.90
10459;DHT22;5277;48.722;8.736;2022-09-29T06:27:09;7.90;99.90
10459;DHT22;5277;48.722;8.736;2022-09-29T06:29:35;7.90;99.90
10459;DHT22;5277;48.722;8.736;2022-09-29T06:32:02;8.00;99.90
10459;DHT22;5277;48.722;8.736;2022-09-29T06:34:27;8.00;99.90
10459;DHT22;5277;48.722;8.736;2022-09-29T06:36:53;8.00;99.90
10459;DHT22;5277;48.722;8.736;2022-09-29T06:39:37;8.00;99.90
10459;DHT22;5277;48.722;8.736;2022-09-29T06:42:03;8.10;99.90
10459;DHT22;5277;48.722;8.736;2022-09-29T06:44:29;8.10;99.90
10459;DHT22;5277;48.722;8.736;2022-09-29T06:46:56;8.20;99.90
10459;DHT22;5277;48.722;8.736;2022-09-29T06:49:22;8.20;99.90
10459;DHT22;5277;48.722;8.736;2022-09-29T06:51:49;8.20;99.90
10459;DHT22;5277;48.722;8.736;2022-09-29T06:54:19;8.20;99.90
10459;DHT22;5277;48.722;8.736;2022-09-29T06:56:46;8.30;99.90
10459;DHT22;5277;48.722;8.736;2022-09-29T06:59:15;8.30;99.90
10459;DHT22;5277;48.722;8.736;2022-09-29T07:01:41;8.40;99.90
10459;DHT22;5277;48.722;8.736;2022-09-29T07:04:06;8.40;99.90
10459;DHT22;5277;48.722;8.736;2022-09-29T07:06:32;8.40;99.90
10459;DHT22;5277;48.722;8.736;2022-09-29T07:08:59;8.40;99.90
10459;DHT22;5277;48.722;8.736;2022-09-29T07:11:28;8.50;99.90
10459;DHT22;5277;48.722;8.736;2022-09-29T07:13:54;8.50;99.90
10459;DHT22;5277;48.722;8.736;2022-09-29T07:16:19;8.50;99.90
10459;DHT22;5277;48.722;8.736;2022-09-29T07:18:47;8.50;99.90
10459;DHT22;5277;48.722;8.736;2022-09-29T07:21:14;8.50;99.90
10459;DHT22;5277;48.722;8.736;2022-09-29T07:23:43;8.60;99.90
10459;DHT22;5277;48.722;8.736;2022-09-29T07:26:09;8.60;99.90
10459;DHT22;5277;48.722;8.736;2022-09-29T07:28:35;8.70;99.90
10459;DHT22;5277;48.722;8.736;2022-09-29T07:31:12;8.80;99.90
10459;DHT22;5277;48.722;8.736;2022-09-29T07:33:38;8.80;99.90
10459;DHT22;5277;48.722;8.736;2022-09-29T07:36:04;8.80;99.90
10459;DHT22;5277;48.722;8.736;2022-09-29T07:38:30;8.90;99.90
10459;DHT22;5277;48.722;8.736;2022-09-29T07:41:06;8.90;99.90
10459;DHT22;5277;48.722;8.736;2022-09-29T07:43:32;8.90;99.90
10459;DHT22;5277;48.722;8.736;2022-09-29T07:45:58;9.00;99.90
10459;DHT22;5277;48.722;8.736;2022-09-29T07:48:28;9.00;99.90
10459;DHT22;5277;48.722;8.736;2022-09-29T07:51:05;9.10;99.90
10459;DHT22;5277;48.722;8.736;2022-09-29T07:53:32;9.20;99.90
10459;DHT22;5277;48.722;8.736;2022-09-29T07:56:07;9.20;99.90
10459;DHT22;5277;48.722;8.736;2022-09-29T07:58:33;9.30;99.90
10459;DHT22;5277;48.722;8.736;2022-09-29T08:01:00;9.30;99.90
10459;DHT22;5277;48.722;8.736;2022-09-29T08:03:26;9.40;99.90
10459;DHT22;5277;48.722;8.736;2022-09-29T08:05:53;9.50;99.90
10459;DHT22;5277;48.722;8.736;2022-09-29T08:08:18;9.50;99.90
10459;DHT22;5277;48.722;8.736;2022-09-29T08:10:44;9.60;99.90
10459;DHT22;5277;48.722;8.736;2022-09-29T08:13:09;9.70;99.90
10459;DHT22;5277;48.722;8.736;2022-09-29T08:15:35;9.70;99.90
10459;DHT22;5277;48.722;8.736;2022-09-29T08:18:01;9.70;99.90
10459;DHT22;5277;48.722;8.736;2022-09-29T08:20:26;9.80;99.90
10459;DHT22;5277;48.722;8.736;2022-09-29T08:22:52;9.90;99.90
10459;DHT22;5277;48.722;8.736;2022-09-29T08:25:21;10.00;99.90
10459;DHT22;5277;48.722;8.736;2022-09-29T08:27:47;10.10;99.90
10459;DHT22;5277;48.722;8.736;2022-09-29T08:30:14;10.20;99.90
10459;DHT22;5277;48.722;8.736;2022-09-29T08:32:40;10.30;99.90
10459;DHT22;5277;48.722;8.736;2022-09-29T08:35:06;10.50;99.90
10459;DHT22;5277;48.722;8.736;2022-09-29T08:37:32;10.60;99.90
10459;DHT22;5277;48.722;8.736;2022-09-29T08:39:57;10.70;99.90
10459;DHT22;5277;48.722;8.736;2022-09-29T08:45:29;10.80;99.90
10459;DHT22;5277;48.722;8.736;2022-09-29T08:48:05;10.80;99.90
10459;DHT22;5277;48.722;8.736;2022-09-29T08:50:44;10.90;99.90
10459;DHT22;5277;48.722;8.736;2022-09-29T08:53:16;11.00;99.90
10459;DHT22;5277;48.722;8.736;2022-09-29T08:55:59;11.20;99.90
10459;DHT22;5277;48.722;8.736;2022-09-29T08:58:25;11.40;99.90
10459;DHT22;5277;48.722;8.736;2022-09-29T09:01:00;11.60;99.90
10459;DHT22;5277;48.722;8.736;2022-09-29T09:25:39;12.70;99.90
10459;DHT22;5277;48.722;8.736;2022-09-29T09:28:17;12.80;99.90
10459;DHT22;5277;48.722;8.736;2022-09-29T09:33:45;12.80;99.90
10459;DHT22;5277;48.722;8.736;2022-09-29T09:36:19;12.90;99.80
10459;DHT22;5277;48.722;8.736;2022-09-29T09:39:13;12.90;99.50
10459;DHT22;5277;48.722;8.736;2022-09-29T09:41:46;12.90;99.90
10459;DHT22;5277;48.722;8.736;2022-09-29T09:44:23;13.10;99.90
10459;DHT22;5277;48.722;8.736;2022-09-29T09:47:22;13.30;99.90
10459;DHT22;5277;48.722;8.736;2022-09-29T09:49:59;13.40;99.90
10459;DHT22;5277;48.722;8.736;2022-09-29T09:54:58;13.60;99.80
10459;DHT22;5277;48.722;8.736;2022-09-29T10:00:24;13.70;99.20
10459;DHT22;5277;48.722;8.736;2022-09-29T10:02:53;13.80;98.80
10459;DHT22;5277;48.722;8.736;2022-09-29T10:05:30;13.80;98.00
10459;DHT22;5277;48.722;8.736;2022-09-29T10:07:58;13.90;98.60
10459;DHT22;5277;48.722;8.736;2022-09-29T10:10:27;14.00;98.60
10459;DHT22;5277;48.722;8.736;2022-09-29T10:20:53;14.10;98.00
10459;DHT22;5277;48.722;8.736;2022-09-29T10:23:34;14.10;99.10
10459;DHT22;5277;48.722;8.736;2022-09-29T10:31:33;14.20;98.40
10459;DHT22;5277;48.722;8.736;2022-09-29T10:34:00;14.20;99.60
10459;DHT22;5277;48.722;8.736;2022-09-29T10:36:33;14.20;99.30
10459;DHT22;5277;48.722;8.736;2022-09-29T10:41:55;14.20;98.10
10459;DHT22;5277;48.722;8.736;2022-09-29T10:44:21;14.30;99.30
10459;DHT22;5277;48.722;8.736;2022-09-29T10:46:53;14.30;98.80
10459;DHT22;5277;48.722;8.736;2022-09-29T10:49:20;14.30;96.90
10459;DHT22;5277;48.722;8.736;2022-09-29T10:52:16;14.40;97.60
10459;DHT22;5277;48.722;8.736;2022-09-29T10:55:00;14.40;97.90
10459;DHT22;5277;48.722;8.736;2022-09-29T10:57:30;14.50;98.40
10459;DHT22;5277;48.722;8.736;2022-09-29T10:59:57;14.60;97.80
10459;DHT22;5277;48.722;8.736;2022-09-29T11:02:32;14.60;97.30
10459;DHT22;5277;48.722;8.736;2022-09-29T11:05:03;14.60;97.00
10459;DHT22;5277;48.722;8.736;2022-09-29T11:07:30;14.70;97.30
10459;DHT22;5277;48.722;8.736;2022-09-29T11:09:58;14.80;97.60
10459;DHT22;5277;48.722;8.736;2022-09-29T11:12:35;14.80;97.20
10459;DHT22;5277;48.722;8.736;2022-09-29T11:15:25;14.80;98.50
10459;DHT22;5277;48.722;8.736;2022-09-29T11:17:51;15.00;96.70
10459;DHT22;5277;48.722;8.736;2022-09-29T11:20:18;15.10;98.00
10459;DHT22;5277;48.722;8.736;2022-09-29T11:22:55;15.20;97.50
10459;DHT22;5277;48.722;8.736;2022-09-29T11:26:01;15.40;96.10
10459;DHT22;5277;48.722;8.736;2022-09-29T11:31:45;15.70;96.60
10459;DHT22;5277;48.722;8.736;2022-09-29T11:39:42;15.90;95.30
10459;DHT22;5277;48.722;8.736;2022-09-29T11:42:39;15.90;94.90
10459;DHT22;5277;48.722;8.736;2022-09-29T11:45:10;15.90;94.50
10459;DHT22;5277;48.722;8.736;2022-09-29T11:47:48;15.90;94.70
10459;DHT22;5277;48.722;8.736;2022-09-29T11:50:23;15.90;94.80
10459;DHT22;5277;48.722;8.736;2022-09-29T11:58:31;15.80;95.60
10459;DHT22;5277;48.722;8.736;2022-09-29T12:06:52;15.70;94.20
10459;DHT22;5277;48.722;8.736;2022-09-29T12:09:31;15.70;92.90
10459;DHT22;5277;48.722;8.736;2022-09-29T12:12:07;15.60;94.70
10459;DHT22;5277;48.722;8.736;2022-09-29T12:15:01;15.50;94.80
10459;DHT22;5277;48.722;8.736;2022-09-29T12:17:32;15.50;94.10
10459;DHT22;5277;48.722;8.736;2022-09-29T12:20:17;15.50;94.10
10459;DHT22;5277;48.722;8.736;2022-09-29T12:22:46;15.50;93.60
10459;DHT22;5277;48.722;8.736;2022-09-29T12:25:16;15.40;93.30
10459;DHT22;5277;48.722;8.736;2022-09-29T12:27:44;15.50;93.30
10459;DHT22;5277;48.722;8.736;2022-09-29T12:30:26;15.50;93.60
10459;DHT22;5277;48.722;8.736;2022-09-29T12:33:10;15.60;94.20
10459;DHT22;5277;48.722;8.736;2022-09-29T12:38:36;15.70;92.80
10459;DHT22;5277;48.722;8.736;2022-09-29T12:41:11;15.70;91.30
10459;DHT22;5277;48.722;8.736;2022-09-29T12:46:36;15.70;92.60
10459;DHT22;5277;48.722;8.736;2022-09-29T12:49:25;15.60;94.40
10459;DHT22;5277;48.722;8.736;2022-09-29T12:51:55;15.60;95.20
10459;DHT22;5277;48.722;8.736;2022-09-29T12:54:34;15.50;93.40
10459;DHT22;5277;48.722;8.736;2022-09-29T12:57:22;15.40;95.30
10459;DHT22;5277;48.722;8.736;2022-09-29T13:00:10;15.20;96.30
10459;DHT22;5277;48.722;8.736;2022-09-29T13:13:56;15.10;97.30
10459;DHT22;5277;48.722;8.736;2022-09-29T13:27:56;15.00;97.50
10459;DHT22;5277;48.722;8.736;2022-09-29T13:30:27;15.00;98.00
10459;DHT22;5277;48.722;8.736;2022-09-29T13:35:39;14.90;98.80
10459;DHT22;5277;48.722;8.736;2022-09-29T13:38:12;15.00;97.90
10459;DHT22;5277;48.722;8.736;2022-09-29T13:40:38;14.90;98.00
10459;DHT22;5277;48.722;8.736;2022-09-29T13:43:04;14.90;98.70
10459;DHT22;5277;48.722;8.736;2022-09-29T13:50:55;15.10;97.70
10459;DHT22;5277;48.722;8.736;2022-09-29T13:55:52;15.00;99.40
10459;DHT22;5277;48.722;8.736;2022-09-29T13:58:26;15.00;99.30
10459;DHT22;5277;48.722;8.736;2022-09-29T14:00:56;15.10;99.40
10459;DHT22;5277;48.722;8.736;2022-09-29T14:03:32;15.10;99.60
10459;DHT22;5277;48.722;8.736;2022-09-29T14:06:21;15.00;98.30
10459;DHT22;5277;48.722;8.736;2022-09-29T14:08:54;15.10;99.30
10459;DHT22;5277;48.722;8.736;2022-09-29T14:11:33;15.00;99.30
10459;DHT22;5277;48.722;8.736;2022-09-29T14:33:12;14.40;99.70
10459;DHT22;5277;48.722;8.736;2022-09-29T14:35:42;14.40;99.90
10459;DHT22;5277;48.722;8.736;2022-09-29T14:38:36;14.30;99.50
10459;DHT22;5277;48.722;8.736;2022-09-29T14:43:51;14.30;99.90
10459;DHT22;5277;48.722;8.736;2022-09-29T14:52:39;14.30;99.90
10459;DHT22;5277;48.722;8.736;2022-09-29T15:00:19;14.20;99.90
10459;DHT22;5277;48.722;8.736;2022-09-29T15:02:50;14.20;99.90
10459;DHT22;5277;48.722;8.736;2022-09-29T15:05:29;14.20;99.90
10459;DHT22;5277;48.722;8.736;2022-09-29T15:07:56;14.20;99.90
10459;DHT22;5277;48.722;8.736;2022-09-29T15:10:30;14.20;99.90
10459;DHT22;5277;48.722;8.736;2022-09-29T15:13:22;14.20;99.90
10459;DHT22;5277;48.722;8.736;2022-09-29T15:15:49;14.20;99.90
10459;DHT22;5277;48.722;8.736;2022-09-29T15:20:54;14.20;99.90
10459;DHT22;5277;48.722;8.736;2022-09-29T15:26:34;14.20;99.90
10459;DHT22;5277;48.722;8.736;2022-09-29T15:29:00;14.10;99.90
10459;DHT22;5277;48.722;8.736;2022-09-29T15:31:32;14.10;99.90
10459;DHT22;5277;48.722;8.736;2022-09-29T15:34:02;14.10;99.90
10459;DHT22;5277;48.722;8.736;2022-09-29T15:36:35;14.10;99.90
10459;DHT22;5277;48.722;8.736;2022-09-29T15:39:04;14.10;99.90
10459;DHT22;5277;48.722;8.736;2022-09-29T15:41:32;14.10;99.90
10459;DHT22;5277;48.722;8.736;2022-09-29T15:43:59;14.00;99.90
10459;DHT22;5277;48.722;8.736;2022-09-29T15:46:38;14.00;99.90
10459;DHT22;5277;48.722;8.736;2022-09-29T15:49:16;14.00;99.90
10459;DHT22;5277;48.722;8.736;2022-09-29T15:52:01;14.00;99.90
10459;DHT22;5277;48.722;8.736;2022-09-29T15:54:39;14.00;99.90
10459;DHT22;5277;48.722;8.736;2022-09-29T15:57:27;13.90;99.90
10459;DHT22;5277;48.722;8.736;2022-09-29T16:06:55;13.80;99.90
10459;DHT22;5277;48.722;8.736;2022-09-29T16:08:54;13.70;99.90
10459;DHT22;5277;48.722;8.736;2022-09-29T16:11:33;13.70;99.90
10459;DHT22;5277;48.722;8.736;2022-09-29T16:14:08;13.60;99.90
10459;DHT22;5277;48.722;8.736;2022-09-29T16:16:44;13.60;99.90
10459;DHT22;5277;48.722;8.736;2022-09-29T16:19:25;13.60;99.90
10459;DHT22;5277;48.722;8.736;2022-09-29T16:21:55;13.60;99.90
10459;DHT22;5277;48.722;8.736;2022-09-29T16:24:25;13.50;99.90
10459;DHT22;5277;48.722;8.736;2022-09-29T16:26:53;13.50;99.90
10459;DHT22;5277;48.722;8.736;2022-09-29T16:31:56;13.50;99.90
10459;DHT22;5277;48.722;8.736;2022-09-29T16:34:28;13.30;99.90
10459;DHT22;5277;48.722;8.736;2022-09-29T16:37:04;13.30;99.90
10459;DHT22;5277;48.722;8.736;2022-09-29T16:39:39;13.20;99.90
10459;DHT22;5277;48.722;8.736;2022-09-29T16:42:14;13.20;99.90
10459;DHT22;5277;48.722;8.736;2022-09-29T16:44:42;13.20;99.90
10459;DHT22;5277;48.722;8.736;2022-09-29T16:47:15;13.20;99.90
10459;DHT22;5277;48.722;8.736;2022-09-29T16:49:54;13.10;99.90
10459;DHT22;5277;48.722;8.736;2022-09-29T16:52:47;13.10;99.90
10459;DHT22;5277;48.722;8.736;2022-09-29T16:55:23;13.00;99.90
10459;DHT22;5277;48.722;8.736;2022-09-29T16:58:18;12.90;99.90
10459;DHT22;5277;48.722;8.736;2022-09-29T17:00:43;12.90;99.90
10459;DHT22;5277;48.722;8.736;2022-09-29T17:03:11;12.80;99.90
10459;DHT22;5277;48.722;8.736;2022-09-29T17:05:41;12.70;99.90
10459;DHT22;5277;48.722;8.736;2022-09-29T17:08:24;12.60;99.90
10459;DHT22;5277;48.722;8.736;2022-09-29T17:10:52;12.60;99.90
10459;DHT22;5277;48.722;8.736;2022-09-29T17:13:18;12.50;99.90
10459;DHT22;5277;48.722;8.736;2022-09-29T17:15:47;12.40;99.90
10459;DHT22;5277;48.722;8.736;2022-09-29T17:18:15;12.30;99.90
10459;DHT22;5277;48.722;8.736;2022-09-29T17:20:42;12.20;99.90
10459;DHT22;5277;48.722;8.736;2022-09-29T17:23:07;12.10;99.90
10459;DHT22;5277;48.722;8.736;2022-09-29T17:25:35;12.20;99.90
10459;DHT22;5277;48.722;8.736;2022-09-29T17:28:10;12.10;99.90
10459;DHT22;5277;48.722;8.736;2022-09-29T17:30:38;12.10;99.90
10459;DHT22;5277;48.722;8.736;2022-09-29T17:33:08;12.10;99.90
10459;DHT22;5277;48.722;8.736;2022-09-29T17:35:57;12.00;99.90
10459;DHT22;5277;48.722;8.736;2022-09-29T17:38:23;12.00;99.90
10459;DHT22;5277;48.722;8.736;2022-09-29T17:40:59;12.00;99.90
10459;DHT22;5277;48.722;8.736;2022-09-29T17:43:27;12.00;99.90
10459;DHT22;5277;48.722;8.736;2022-09-29T17:45:55;11.90;99.90
10459;DHT22;5277;48.722;8.736;2022-09-29T17:48:25;11.90;99.90
10459;DHT22;5277;48.722;8.736;2022-09-29T17:50:54;11.90;99.90
10459;DHT22;5277;48.722;8.736;2022-09-29T17:53:25;11.90;99.90
10459;DHT22;5277;48.722;8.736;2022-09-29T17:55:53;11.90;99.90
10459;DHT22;5277;48.722;8.736;2022-09-29T17:58:20;11.90;99.90
10459;DHT22;5277;48.722;8.736;2022-09-29T18:00:49;11.90;99.90
10459;DHT22;5277;48.722;8.736;2022-09-29T18:03:17;11.90;99.90
10459;DHT22;5277;48.722;8.736;2022-09-29T18:05:45;11.90;99.90
10459;DHT22;5277;48.722;8.736;2022-09-29T18:08:20;11.90;99.90
10459;DHT22;5277;48.722;8.736;2022-09-29T18:10:57;11.80;99.90
10459;DHT22;5277;48.722;8.736;2022-09-29T18:13:25;11.70;99.90
10459;DHT22;5277;48.722;8.736;2022-09-29T18:15:57;11.70;99.90
10459;DHT22;5277;48.722;8.736;2022-09-29T18:18:25;11.80;99.90
10459;DHT22;5277;48.722;8.736;2022-09-29T18:20:51;11.80;99.90
10459;DHT22;5277;48.722;8.736;2022-09-29T18:23:17;11.80;99.90
10459;DHT22;5277;48.722;8.736;2022-09-29T18:25:45;11.80;99.90
10459;DHT22;5277;48.722;8.736;2022-09-29T18:28:12;11.80;99.90
10459;DHT22;5277;48.722;8.736;2022-09-29T18:30:40;11.80;99.90
10459;DHT22;5277;48.722;8.736;2022-09-29T18:33:12;11.90;99.90
10459;DHT22;5277;48.722;8.736;2022-09-29T18:35:44;11.80;99.90
10459;DHT22;5277;48.722;8.736;2022-09-29T18:38:10;11.80;99.90
10459;DHT22;5277;48.722;8.736;2022-09-29T18:40:39;11.80;99.90
10459;DHT22;5277;48.722;8.736;2022-09-29T18:43:05;11.80;99.90
10459;DHT22;5277;48.722;8.736;2022-09-29T18:45:35;11.80;99.90
10459;DHT22;5277;48.722;8.736;2022-09-29T18:48:03;11.80;99.90
10459;DHT22;5277;48.722;8.736;2022-09-29T18:50:34;11.90;99.90
10459;DHT22;5277;48.722;8.736;2022-09-29T18:53:02;11.80;99.90
10459;DHT22;5277;48.722;8.736;2022-09-29T18:55:29;11.80;99.90
10459;DHT22;5277;48.722;8.736;2022-09-29T18:58:01;11.80;99.90
10459;DHT22;5277;48.722;8.736;2022-09-29T19:00:30;11.80;99.90
10459;DHT22;5277;48.722;8.736;2022-09-29T19:02:56;11.70;99.90
10459;DHT22;5277;48.722;8.736;2022-09-29T19:05:26;11.70;99.90
10459;DHT22;5277;48.722;8.736;2022-09-29T19:07:55;11.80;99.90
10459;DHT22;5277;48.722;8.736;2022-09-29T19:10:23;11.80;99.90
10459;DHT22;5277;48.722;8.736;2022-09-29T19:12:50;11.80;99.90
10459;DHT22;5277;48.722;8.736;2022-09-29T19:15:18;11.70;99.90
10459;DHT22;5277;48.722;8.736;2022-09-29T19:17:45;11.60;99.90
10459;DHT22;5277;48.722;8.736;2022-09-29T19:20:13;11.50;99.90
10459;DHT22;5277;48.722;8.736;2022-09-29T19:22:40;11.50;99.90
10459;DHT22;5277;48.722;8.736;2022-09-29T19:25:18;11.50;99.90
10459;DHT22;5277;48.722;8.736;2022-09-29T19:27:45;11.60;99.90
10459;DHT22;5277;48.722;8.736;2022-09-29T19:30:13;11.60;99.90
10459;DHT22;5277;48.722;8.736;2022-09-29T19:32:42;11.60;99.90